Hlavní strana
METAR-TAF:

METAR-TAF

Letiště :

Atyrau, Kazachstán

zeměpisná šířka: 47-07-19N, zeměpisná délka: 051-49-17E, výška: -22 m

Aktuální stav počasí

Zpráva byla vytvořena před 25 minutami, v 03:00 UTC
Východojihovýchodní vítr 8 kt
Teplota 25°C
Vlhkost vzduchu 50%
Tlak 1011 hPa
Viditelnost 10 km a více
Žádná oblačnost pod 1500 m, nevyskytují se cumulonimby.

METAR: UATG 130300Z 11004MPS CAVOK 25/14 Q1011 R14/CLRD70 NOSIG RMK QFE760/1013

Čas: 09:25 (03:25 UTC)

Předpověď počasí

Zpráva byla vytvořena před 4 hodinami a 25 minutami, v 23:00 UTC
Předpověď platná od 13 v 00 UTC do 13 v 24 UTC
vítr z různých směrů 6 kt
Viditelnost 10 km a více
Polojasno ve výšce 3300 ft, Cumulonimbus.
Změna
od 13 v 04 UTC do 13 v 06 UTC
Východoseverovýchodní vítr 12 kt
Změna
od 13 v 10 UTC do 13 v 12 UTC
Jihozápadní vítr 14 kt

TAF: UATG 122300Z 1300/1324 VRB03MPS 9999 SCT033CB TX33/1312Z TN18/1301Z BECMG 1304/1306 07006MPS BECMG 1310/1312 23007MPS

Stav a předpovědi počasí z více než 4 000 letišť (zprávy METAR a TAF).

Červené a žluté tečky na mapě představují dostupné meteorologické stanice.

Když kurzor umístíte na tečku, zobrazí se název stanice.

Pak kliknutím zobrazíte stav a předpověď počasí.

Chcete-li změnit mapu, kliknutím na zelené tlačítko se znaménkem +mapu přiblížíte, kliknutím na zelené tlačítko se znaménkem – mapu oddálíte a kliknutím na zelené šipky přejdete na sousední mapy.


METAR-TAF: